Buoy 46535

sailwx.info

Track history (hours):
 
Tides and Currents Weather Stations Pressure Air Temp Water Temp Dewpoint Dewpoint Depression Visibility Wind Speed Wind Dir Waves Ship Positions

Drifting buoy 46535

Last reported at 2014-Dec-22 05:00 UTC. Time now 2014-Dec-22 06:22 UTC.
Position N 53°45' W 159°10'.

Barometer 998.7 mb
Water temperature 6.4 ° C

Date/timePositionNaut miles runAvg speedWind from/ knotsBaromVisibWave heightAir tempDewpointWater temp
2014-Dec-22 05:00N 53°45' W 159°10'2 1.1 998.7 6.4
2014-Dec-22 02:50N 53°46' W 159°06'0 0.0 996.7 6.4
2014-Dec-22 01:50N 53°46' W 159°06'1 0.8 995.7 6.4
2014-Dec-22 00:00N 53°47' W 159°04'2 1.6 994.0 6.4
2014-Dec-21 23:00N 53°47' W 159°02'1 0.7 993.5 6.4
2014-Dec-21 21:50N 53°47' W 159°00'1 1.1 992.8 6.4
2014-Dec-21 21:00N 53°48' W 159°02'1 1.1 992.4 6.4
2014-Dec-21 20:00N 53°48' W 158°60'1 0.8 991.4 6.4
2014-Dec-21 18:50N 53°48' W 158°58'0 0.0 990.3 6.4
2014-Dec-21 17:50N 53°48' W 158°58'2 1.0 989.3 6.4
2014-Dec-21 16:00N 53°48' W 158°55'0 0.0 987.8 6.4
2014-Dec-21 15:00N 53°48' W 158°55'1 1.1 987.0 6.4
2014-Dec-21 13:50N 53°48' W 158°53'0 0.0 986.4 6.4
2014-Dec-21 13:00N 53°48' W 158°53'1 0.6 985.7 6.4
2014-Dec-21 11:50N 53°48' W 158°52'3 0.7 984.9 6.4
2014-Dec-21 07:00N 53°50' W 158°47'0 0.1 980.9 6.4
2014-Dec-21 05:50N 53°50' W 158°47'1 0.7 980.0 6.4
2014-Dec-21 04:50N 53°50' W 158°46'0 0.4 979.1 6.4
2014-Dec-21 04:00N 53°49' W 158°47'1 0.7 978.2 6.5
2014-Dec-21 03:00N 53°49' W 158°45'1 1.1 977.4 6.5
2014-Dec-21 02:00N 53°48' W 158°44'1 0.6 976.6 6.5
2014-Dec-20 23:50N 53°49' W 158°42'1 0.8 975.0 6.5
2014-Dec-20 23:00N 53°49' W 158°41'0 0.2 974.3 6.5
2014-Dec-20 22:00N 53°49' W 158°41'2 2.2 973.8 6.5
2014-Dec-20 21:00N 53°51' W 158°38'1 0.4 973.1 6.5
2014-Dec-20 18:50N 53°51' W 158°38'1 0.9 971.6 6.5
2014-Dec-20 17:50N 53°51' W 158°36'0 0.3 971.2 6.5
2014-Dec-20 16:50N 53°51' W 158°36'0 0.2 970.9 6.4
2014-Dec-20 15:50N 53°51' W 158°36'0 0.0 970.7 6.4
2014-Dec-20 14:50N 53°51' W 158°36'2 1.2 970.7 6.4
2014-Dec-20 12:50N 53°51' W 158°32'2 2.4 971.1 6.4
2014-Dec-20 12:00N 53°51' W 158°35'3 1.4 971.3 6.4
2014-Dec-20 10:00N 53°52' W 158°30'0 0.0 971.4 6.4
2014-Dec-20 09:00N 53°52' W 158°30'1 0.9 971.5 6.4
2014-Dec-20 08:00N 53°52' W 158°29'0 0.3 971.6 6.4
2014-Dec-20 06:50N 53°52' W 158°29'0 0.2 971.7 6.4
2014-Dec-20 04:50N 53°52' W 158°29'1 1.0 971.8 6.4
2014-Dec-20 03:50N 53°52' W 158°27'0 0.6 971.8 6.4
2014-Dec-20 03:00N 53°52' W 158°26'0 0.3 971.8 6.4
2014-Dec-20 02:00N 53°52' W 158°26'0 0.0 971.9 6.4
2014-Dec-20 01:00N 53°52' W 158°26'1 0.5 971.9 6.4
2014-Dec-20 00:00N 53°52' W 158°25'1 0.6 972.1 6.5
2014-Dec-19 22:50N 53°52' W 158°24'3 1.4 972.6 6.5
2014-Dec-19 20:50N 53°54' W 158°20'1 0.8 973.3 6.5
2014-Dec-19 20:00N 53°55' W 158°20'0 0.0 973.3 6.5
2014-Dec-19 19:00N 53°55' W 158°20'0 0.2 973.5 6.5
2014-Dec-19 18:00N 53°55' W 158°20'1 0.6 973.7 6.5
2014-Dec-19 17:00N 53°54' W 158°20'1 0.7 974.0 6.5
2014-Dec-19 16:00N 53°54' W 158°19'0 0.1 974.2 6.5
2014-Dec-19 14:50N 53°54' W 158°19'1 1.2 974.5 6.5
2014-Dec-19 14:00N 53°54' W 158°17'1 1.4 975.4 6.4
2014-Dec-19 13:00N 53°55' W 158°16'0 0.0 976.1 6.5
2014-Dec-19 12:00N 53°55' W 158°16'0 0.0 976.6 6.5
2014-Dec-19 11:00N 53°55' W 158°16'2 0.6 977.2 6.5
2014-Dec-19 08:00N 53°56' W 158°13'1 0.8 979.5 6.5
2014-Dec-19 07:00N 53°56' W 158°11'1 0.8 980.1 6.5
2014-Dec-19 06:00N 53°56' W 158°13'0 0.2 981.2 6.5
2014-Dec-19 04:00N 53°56' W 158°12'1 0.6 982.5 6.5
2014-Dec-19 02:50N 53°56' W 158°11'0 0.3 983.3 6.5
2014-Dec-19 01:50N 53°56' W 158°11'0 0.4 984.2 6.5
2014-Dec-19 01:00N 53°56' W 158°11'1 1.4 985.0 6.5
2014-Dec-19 00:00N 53°57' W 158°08'1 1.0 985.6 6.5
2014-Dec-18 23:00N 53°58' W 158°07'0 0.0 986.5 6.5
2014-Dec-18 20:50N 53°58' W 158°07'1 0.9 987.8 6.5
2014-Dec-18 19:50N 53°58' W 158°06'1 0.8 988.0 6.5
2014-Dec-18 19:00N 53°59' W 158°06'1 0.5 988.3 6.5
2014-Dec-18 18:00N 53°59' W 158°05'1 0.5 988.2 6.5
2014-Dec-18 16:50N 53°59' W 158°04'0 0.3 988.4 6.5
2014-Dec-18 15:50N 53°59' W 158°04'0 0.4 988.1 6.5
2014-Dec-18 15:00N 53°59' W 158°03'2 0.9 988.0 6.5
2014-Dec-18 12:50N 54°00' W 158°01'0 0.0 987.7 6.5
2014-Dec-18 11:50N 54°00' W 158°01'2 1.9 986.9 6.5
2014-Dec-18 11:00N 54°01' W 157°59'0 0.0 986.0 6.5
2014-Dec-18 09:00N 54°01' W 157°59'1 0.5 984.6 6.5
2014-Dec-18 07:50N 54°01' W 157°58'1 0.5 983.7 6.5
2014-Dec-18 06:50N 54°01' W 157°57'1 0.7 983.0 6.5
2014-Dec-18 06:00N 54°01' W 157°56'1 0.6 982.4 6.5
2014-Dec-18 05:00N 54°01' W 157°57'1 1.3 982.0 6.5
2014-Dec-18 03:50N 54°01' W 157°55'1 1.1 981.7 6.5
2014-Dec-18 03:00N 54°02' W 157°54'1 0.9 981.2 6.5
2014-Dec-18 01:50N 54°02' W 157°52'0 0.5 981.0 6.4
2014-Dec-18 00:50N 54°02' W 157°53'1 0.6 980.7 6.4
2014-Dec-17 23:50N 54°02' W 157°52'1 1.2 981.1 6.4
2014-Dec-17 23:00N 54°03' W 157°50'0 0.0 981.4 6.4
2014-Dec-17 21:00N 54°03' W 157°50'1 1.3 983.4 6.4
2014-Dec-17 19:50N 54°04' W 157°48'0 0.0 984.1 6.4
2014-Dec-17 18:50N 54°04' W 157°48'1 1.4 984.8 6.4
2014-Dec-17 17:50N 54°04' W 157°46'0 0.0 985.5 6.4
2014-Dec-17 17:00N 54°04' W 157°46'0 0.4 986.4 6.4
2014-Dec-17 16:00N 54°04' W 157°46'0 0.4 987.6 6.4
2014-Dec-17 15:00N 54°04' W 157°45'1 0.6 988.8 6.4
2014-Dec-17 13:50N 54°05' W 157°45'1 1.5 990.4 6.4
2014-Dec-17 13:00N 54°05' W 157°43'0 0.0 991.3 6.4
2014-Dec-17 11:50N 54°05' W 157°43'2 2.2 992.6 6.4
2014-Dec-17 10:50N 54°07' W 157°41'0 0.1 993.7 6.4
2014-Dec-17 08:00N 54°07' W 157°41'1 1.1 995.6 6.4
2014-Dec-17 06:50N 54°08' W 157°39'1 0.9 995.8 6.4
2014-Dec-17 05:50N 54°08' W 157°38'1 1.0 995.9 6.4
2014-Dec-17 04:50N 54°09' W 157°39'2 2.0 995.9 6.4
2014-Dec-17 04:00N 54°09' W 157°36'1 0.6 995.8 6.4
2014-Dec-17 03:00N 54°09' W 157°36'1 1.0 995.2 6.4
2014-Dec-17 01:50N 54°10' W 157°34'0 0.1 995.2 6.4
2014-Dec-17 01:00N 54°10' W 157°34'1 1.3 995.0 6.4
2014-Dec-16 23:50N 54°11' W 157°32'0 0.0 994.4 6.4
2014-Dec-16 22:50N 54°11' W 157°32'0 0.2 994.4 6.4
2014-Dec-16 21:50N 54°11' W 157°32'2 1.9 993.9 6.4
2014-Dec-16 20:50N 54°11' W 157°29'1 1.5 993.3 6.4
2014-Dec-16 20:00N 54°12' W 157°28'1 0.6 992.7 6.4
2014-Dec-16 17:50N 54°13' W 157°26'0 0.0 990.6 6.4
2014-Dec-16 16:50N 54°13' W 157°26'12 0.7 989.9 6.4
2014-Dec-15 22:50N 54°20' W 157°10'1 1.1 982.6 6.4
2014-Dec-15 22:00N 54°21' W 157°08'4 2.2 982.0 6.4
2014-Dec-15 20:00N 54°25' W 157°04'0 0.0 981.1 6.4
2014-Dec-15 19:00N 54°25' W 157°04'0 0.0 980.3 6.5
2014-Dec-15 18:00N 54°25' W 157°04'1 0.8 979.8 6.5
2014-Dec-15 16:50N 54°25' W 157°03'1 1.4 979.3 6.6
2014-Dec-15 16:00N 54°26' W 157°03'0 0.0 978.5 6.6
2014-Dec-15 14:50N 54°26' W 157°03'1 1.4 978.5 6.6
2014-Dec-15 13:50N 54°28' W 157°02'1 1.1 978.5 6.6
2014-Dec-15 13:00N 54°28' W 157°03'0 0.0 978.7 6.6
2014-Dec-15 12:00N 54°28' W 157°03'0 0.0 979.5 6.6
2014-Dec-15 11:00N 54°28' W 157°03'2 1.0 980.0 6.6
2014-Dec-15 09:00N 54°28' W 156°59'2 1.8 980.2 6.7
2014-Dec-15 07:50N 54°28' W 156°56'1 1.3 980.0 6.7
2014-Dec-15 07:00N 54°28' W 156°54'1 0.9 979.8 6.7
2014-Dec-15 06:00N 54°29' W 156°53'3 2.5 979.7 6.7
2014-Dec-15 05:00N 54°31' W 156°50'2 1.4 978.8 6.7
2014-Dec-15 03:50N 54°32' W 156°48'1 0.7 978.4 6.8
2014-Dec-15 02:50N 54°32' W 156°49'2 1.8 977.8 6.8
2014-Dec-15 01:50N 54°33' W 156°47'2 1.6 977.2 6.8
2014-Dec-15 00:50N 54°34' W 156°45'1 0.8 976.6 6.8
2014-Dec-15 00:00N 54°34' W 156°46'2 1.4 976.0 6.8
2014-Dec-14 22:50N 54°35' W 156°44'1 0.7 976.1 6.7
2014-Dec-14 22:00N 54°34' W 156°44'1 1.4 976.4 6.7
2014-Dec-14 21:00N 54°34' W 156°41'0 0.0 976.6 6.6
2014-Dec-14 19:50N 54°34' W 156°41'3 2.8 977.6 6.6
2014-Dec-14 18:50N 54°34' W 156°37'0 0.0 979.0 6.6
2014-Dec-14 17:50N 54°34' W 156°37'2 2.2 980.0 6.6
2014-Dec-14 17:00N 54°35' W 156°34'0 0.0 981.7 6.6
2014-Dec-14 16:00N 54°35' W 156°34'2 1.8 983.6 6.6
2014-Dec-14 15:00N 54°36' W 156°31'1 0.6 985.3 6.6
2014-Dec-14 13:50N 54°36' W 156°30'0 0.0 987.5 6.6
2014-Dec-14 13:00N 54°36' W 156°30'1 1.1 989.4 6.6
2014-Dec-14 11:50N 54°37' W 156°29'1 0.9 991.5 6.6
2014-Dec-14 10:50N 54°38' W 156°28'0 0.0 993.7 6.6
2014-Dec-14 09:50N 54°38' W 156°28'2 2.4 994.8 6.7
2014-Dec-14 08:50N 54°38' W 156°24'1 0.8 996.5 6.7
2014-Dec-14 07:00N 54°38' W 156°22'0 0.0 998.9 6.7
2014-Dec-14 05:50N 54°38' W 156°22'2 2.2 1000.1 6.7
2014-Dec-14 05:00N 54°38' W 156°19'1 1.2 1000.8 6.7
2014-Dec-14 04:00N 54°39' W 156°17'1 0.7 1001.7 6.8
2014-Dec-14 03:00N 54°40' W 156°16'1 0.6 1002.5 6.8
2014-Dec-14 01:50N 54°40' W 156°15'2 1.7 1003.0 6.8
2014-Dec-14 00:50N 54°41' W 156°13'0 0.3 1003.3 6.8
2014-Dec-13 23:50N 54°41' W 156°12'1 1.0 1003.3 6.8
2014-Dec-13 22:50N 54°42' W 156°11'17 0.7 1003.8 6.8
2014-Dec-12 23:50N 54°50' W 155°45'2 0.8 996.5 7.1
2014-Dec-12 21:50N 54°50' W 155°42'0 0.3 996.5 7.1
2014-Dec-12 20:50N 54°51' W 155°42'1 1.1 996.6 7.1
2014-Dec-12 20:00N 54°50' W 155°40'2 1.1 996.4 7.1
2014-Dec-12 18:00N 54°51' W 155°37'1 0.8 995.4 7.1
2014-Dec-12 17:00N 54°51' W 155°36'4 1.0 995.0 7.1
2014-Dec-12 13:00N 54°54' W 155°30'5 0.8 994.7 7.1
2014-Dec-12 07:00N 54°54' W 155°22'1 0.7 994.0 7.2
2014-Dec-12 05:00N 54°55' W 155°19'   993.4 7.2
Track history (hours):
 
Tides and Currents Weather Stations Pressure Air Temp Water Temp Dewpoint Dewpoint Depression Visibility Wind Speed Wind Dir Waves Ship Positions

Drifting buoy 46535

Last reported at 2014-Dec-22 05:00 UTC. Time now 2014-Dec-22 06:22 UTC.
Position N 53°45' W 159°10'.

Barometer 998.7 mb
Water temperature 6.4 ° C

Date/timePositionNaut miles runAvg speedWind from/ knotsBaromVisibWave heightAir tempDewpointWater temp
2014-Dec-22 05:00N 53°45' W 159°10'2 1.1 998.7 6.4
2014-Dec-22 02:50N 53°46' W 159°06'0 0.0 996.7 6.4
2014-Dec-22 01:50N 53°46' W 159°06'1 0.8 995.7 6.4
2014-Dec-22 00:00N 53°47' W 159°04'2 1.6 994.0 6.4
2014-Dec-21 23:00N 53°47' W 159°02'1 0.7 993.5 6.4
2014-Dec-21 21:50N 53°47' W 159°00'1 1.1 992.8 6.4
2014-Dec-21 21:00N 53°48' W 159°02'1 1.1 992.4 6.4
2014-Dec-21 20:00N 53°48' W 158°60'1 0.8 991.4 6.4
2014-Dec-21 18:50N 53°48' W 158°58'0 0.0 990.3 6.4
2014-Dec-21 17:50N 53°48' W 158°58'2 1.0 989.3 6.4
2014-Dec-21 16:00N 53°48' W 158°55'0 0.0 987.8 6.4
2014-Dec-21 15:00N 53°48' W 158°55'1 1.1 987.0 6.4
2014-Dec-21 13:50N 53°48' W 158°53'0 0.0 986.4 6.4
2014-Dec-21 13:00N 53°48' W 158°53'1 0.6 985.7 6.4
2014-Dec-21 11:50N 53°48' W 158°52'3 0.7 984.9 6.4
2014-Dec-21 07:00N 53°50' W 158°47'0 0.1 980.9 6.4
2014-Dec-21 05:50N 53°50' W 158°47'1 0.7 980.0 6.4
2014-Dec-21 04:50N 53°50' W 158°46'0 0.4 979.1 6.4
2014-Dec-21 04:00N 53°49' W 158°47'1 0.7 978.2 6.5
2014-Dec-21 03:00N 53°49' W 158°45'1 1.1 977.4 6.5
2014-Dec-21 02:00N 53°48' W 158°44'1 0.6 976.6 6.5
2014-Dec-20 23:50N 53°49' W 158°42'1 0.8 975.0 6.5
2014-Dec-20 23:00N 53°49' W 158°41'0 0.2 974.3 6.5
2014-Dec-20 22:00N 53°49' W 158°41'2 2.2 973.8 6.5
2014-Dec-20 21:00N 53°51' W 158°38'1 0.4 973.1 6.5
2014-Dec-20 18:50N 53°51' W 158°38'1 0.9 971.6 6.5
2014-Dec-20 17:50N 53°51' W 158°36'0 0.3 971.2 6.5
2014-Dec-20 16:50N 53°51' W 158°36'0 0.2 970.9 6.4
2014-Dec-20 15:50N 53°51' W 158°36'0 0.0 970.7 6.4
2014-Dec-20 14:50N 53°51' W 158°36'2 1.2 970.7 6.4
2014-Dec-20 12:50N 53°51' W 158°32'2 2.4 971.1 6.4
2014-Dec-20 12:00N 53°51' W 158°35'3 1.4 971.3 6.4
2014-Dec-20 10:00N 53°52' W 158°30'0 0.0 971.4 6.4
2014-Dec-20 09:00N 53°52' W 158°30'1 0.9 971.5 6.4
2014-Dec-20 08:00N 53°52' W 158°29'0 0.3 971.6 6.4
2014-Dec-20 06:50N 53°52' W 158°29'0 0.2 971.7 6.4
2014-Dec-20 04:50N 53°52' W 158°29'1 1.0 971.8 6.4
2014-Dec-20 03:50N 53°52' W 158°27'0 0.6 971.8 6.4
2014-Dec-20 03:00N 53°52' W 158°26'0 0.3 971.8 6.4
2014-Dec-20 02:00N 53°52' W 158°26'0 0.0 971.9 6.4
2014-Dec-20 01:00N 53°52' W 158°26'1 0.5 971.9 6.4
2014-Dec-20 00:00N 53°52' W 158°25'1 0.6 972.1 6.5
2014-Dec-19 22:50N 53°52' W 158°24'3 1.4 972.6 6.5
2014-Dec-19 20:50N 53°54' W 158°20'1 0.8 973.3 6.5
2014-Dec-19 20:00N 53°55' W 158°20'0 0.0 973.3 6.5
2014-Dec-19 19:00N 53°55' W 158°20'0 0.2 973.5 6.5
2014-Dec-19 18:00N 53°55' W 158°20'1 0.6 973.7 6.5
2014-Dec-19 17:00N 53°54' W 158°20'1 0.7 974.0 6.5
2014-Dec-19 16:00N 53°54' W 158°19'0 0.1 974.2 6.5
2014-Dec-19 14:50N 53°54' W 158°19'1 1.2 974.5 6.5
2014-Dec-19 14:00N 53°54' W 158°17'1 1.4 975.4 6.4
2014-Dec-19 13:00N 53°55' W 158°16'0 0.0 976.1 6.5
2014-Dec-19 12:00N 53°55' W 158°16'0 0.0 976.6 6.5
2014-Dec-19 11:00N 53°55' W 158°16'2 0.6 977.2 6.5
2014-Dec-19 08:00N 53°56' W 158°13'1 0.8 979.5 6.5
2014-Dec-19 07:00N 53°56' W 158°11'1 0.8 980.1 6.5
2014-Dec-19 06:00N 53°56' W 158°13'0 0.2 981.2 6.5
2014-Dec-19 04:00N 53°56' W 158°12'1 0.6 982.5 6.5
2014-Dec-19 02:50N 53°56' W 158°11'0 0.3 983.3 6.5
2014-Dec-19 01:50N 53°56' W 158°11'0 0.4 984.2 6.5
2014-Dec-19 01:00N 53°56' W 158°11'1 1.4 985.0 6.5
2014-Dec-19 00:00N 53°57' W 158°08'1 1.0 985.6 6.5
2014-Dec-18 23:00N 53°58' W 158°07'0 0.0 986.5 6.5
2014-Dec-18 20:50N 53°58' W 158°07'1 0.9 987.8 6.5
2014-Dec-18 19:50N 53°58' W 158°06'1 0.8 988.0 6.5
2014-Dec-18 19:00N 53°59' W 158°06'1 0.5 988.3 6.5
2014-Dec-18 18:00N 53°59' W 158°05'1 0.5 988.2 6.5
2014-Dec-18 16:50N 53°59' W 158°04'0 0.3 988.4 6.5
2014-Dec-18 15:50N 53°59' W 158°04'0 0.4 988.1 6.5
2014-Dec-18 15:00N 53°59' W 158°03'2 0.9 988.0 6.5
2014-Dec-18 12:50N 54°00' W 158°01'0 0.0 987.7 6.5
2014-Dec-18 11:50N 54°00' W 158°01'2 1.9 986.9 6.5
2014-Dec-18 11:00N 54°01' W 157°59'0 0.0 986.0 6.5
2014-Dec-18 09:00N 54°01' W 157°59'1 0.5 984.6 6.5
2014-Dec-18 07:50N 54°01' W 157°58'1 0.5 983.7 6.5
2014-Dec-18 06:50N 54°01' W 157°57'1 0.7 983.0 6.5
2014-Dec-18 06:00N 54°01' W 157°56'1 0.6 982.4 6.5
2014-Dec-18 05:00N 54°01' W 157°57'1 1.3 982.0 6.5
2014-Dec-18 03:50N 54°01' W 157°55'1 1.1 981.7 6.5
2014-Dec-18 03:00N 54°02' W 157°54'1 0.9 981.2 6.5
2014-Dec-18 01:50N 54°02' W 157°52'0 0.5 981.0 6.4
2014-Dec-18 00:50N 54°02' W 157°53'1 0.6 980.7 6.4
2014-Dec-17 23:50N 54°02' W 157°52'1 1.2 981.1 6.4
2014-Dec-17 23:00N 54°03' W 157°50'0 0.0 981.4 6.4
2014-Dec-17 21:00N 54°03' W 157°50'1 1.3 983.4 6.4
2014-Dec-17 19:50N 54°04' W 157°48'0 0.0 984.1 6.4
2014-Dec-17 18:50N 54°04' W 157°48'1 1.4 984.8 6.4
2014-Dec-17 17:50N 54°04' W 157°46'0 0.0 985.5 6.4
2014-Dec-17 17:00N 54°04' W 157°46'0 0.4 986.4 6.4
2014-Dec-17 16:00N 54°04' W 157°46'0 0.4 987.6 6.4
2014-Dec-17 15:00N 54°04' W 157°45'1 0.6 988.8 6.4
2014-Dec-17 13:50N 54°05' W 157°45'1 1.5 990.4 6.4
2014-Dec-17 13:00N 54°05' W 157°43'0 0.0 991.3 6.4
2014-Dec-17 11:50N 54°05' W 157°43'2 2.2 992.6 6.4
2014-Dec-17 10:50N 54°07' W 157°41'0 0.1 993.7 6.4
2014-Dec-17 08:00N 54°07' W 157°41'1 1.1 995.6 6.4
2014-Dec-17 06:50N 54°08' W 157°39'1 0.9 995.8 6.4
2014-Dec-17 05:50N 54°08' W 157°38'1 1.0 995.9 6.4
2014-Dec-17 04:50N 54°09' W 157°39'2 2.0 995.9 6.4
2014-Dec-17 04:00N 54°09' W 157°36'1 0.6 995.8 6.4
2014-Dec-17 03:00N 54°09' W 157°36'1 1.0 995.2 6.4
2014-Dec-17 01:50N 54°10' W 157°34'0 0.1 995.2 6.4
2014-Dec-17 01:00N 54°10' W 157°34'1 1.3 995.0 6.4
2014-Dec-16 23:50N 54°11' W 157°32'0 0.0 994.4 6.4
2014-Dec-16 22:50N 54°11' W 157°32'0 0.2 994.4 6.4
2014-Dec-16 21:50N 54°11' W 157°32'2 1.9 993.9 6.4
2014-Dec-16 20:50N 54°11' W 157°29'1 1.5 993.3 6.4
2014-Dec-16 20:00N 54°12' W 157°28'1 0.6 992.7 6.4
2014-Dec-16 17:50N 54°13' W 157°26'0 0.0 990.6 6.4
2014-Dec-16 16:50N 54°13' W 157°26'12 0.7 989.9 6.4
2014-Dec-15 22:50N 54°20' W 157°10'1 1.1 982.6 6.4
2014-Dec-15 22:00N 54°21' W 157°08'4 2.2 982.0 6.4
2014-Dec-15 20:00N 54°25' W 157°04'0 0.0 981.1 6.4
2014-Dec-15 19:00N 54°25' W 157°04'0 0.0 980.3 6.5
2014-Dec-15 18:00N 54°25' W 157°04'1 0.8 979.8 6.5
2014-Dec-15 16:50N 54°25' W 157°03'1 1.4 979.3 6.6
2014-Dec-15 16:00N 54°26' W 157°03'0 0.0 978.5 6.6
2014-Dec-15 14:50N 54°26' W 157°03'1 1.4 978.5 6.6
2014-Dec-15 13:50N 54°28' W 157°02'1 1.1 978.5 6.6
2014-Dec-15 13:00N 54°28' W 157°03'0 0.0 978.7 6.6
2014-Dec-15 12:00N 54°28' W 157°03'0 0.0 979.5 6.6
2014-Dec-15 11:00N 54°28' W 157°03'2 1.0 980.0 6.6
2014-Dec-15 09:00N 54°28' W 156°59'2 1.8 980.2 6.7
2014-Dec-15 07:50N 54°28' W 156°56'1 1.3 980.0 6.7
2014-Dec-15 07:00N 54°28' W 156°54'1 0.9 979.8 6.7
2014-Dec-15 06:00N 54°29' W 156°53'3 2.5 979.7 6.7
2014-Dec-15 05:00N 54°31' W 156°50'2 1.4 978.8 6.7
2014-Dec-15 03:50N 54°32' W 156°48'1 0.7 978.4 6.8
2014-Dec-15 02:50N 54°32' W 156°49'2 1.8 977.8 6.8
2014-Dec-15 01:50N 54°33' W 156°47'2 1.6 977.2 6.8
2014-Dec-15 00:50N 54°34' W 156°45'1 0.8 976.6 6.8
2014-Dec-15 00:00N 54°34' W 156°46'2 1.4 976.0 6.8
2014-Dec-14 22:50N 54°35' W 156°44'1 0.7 976.1 6.7
2014-Dec-14 22:00N 54°34' W 156°44'1 1.4 976.4 6.7
2014-Dec-14 21:00N 54°34' W 156°41'0 0.0 976.6 6.6
2014-Dec-14 19:50N 54°34' W 156°41'3 2.8 977.6 6.6
2014-Dec-14 18:50N 54°34' W 156°37'0 0.0 979.0 6.6
2014-Dec-14 17:50N 54°34' W 156°37'2 2.2 980.0 6.6
2014-Dec-14 17:00N 54°35' W 156°34'0 0.0 981.7 6.6
2014-Dec-14 16:00N 54°35' W 156°34'2 1.8 983.6 6.6
2014-Dec-14 15:00N 54°36' W 156°31'1 0.6 985.3 6.6
2014-Dec-14 13:50N 54°36' W 156°30'0 0.0 987.5 6.6
2014-Dec-14 13:00N 54°36' W 156°30'1 1.1 989.4 6.6
2014-Dec-14 11:50N 54°37' W 156°29'1 0.9 991.5 6.6
2014-Dec-14 10:50N 54°38' W 156°28'0 0.0 993.7 6.6
2014-Dec-14 09:50N 54°38' W 156°28'2 2.4 994.8 6.7
2014-Dec-14 08:50N 54°38' W 156°24'1 0.8 996.5 6.7
2014-Dec-14 07:00N 54°38' W 156°22'0 0.0 998.9 6.7
2014-Dec-14 05:50N 54°38' W 156°22'2 2.2 1000.1 6.7
2014-Dec-14 05:00N 54°38' W 156°19'1 1.2 1000.8 6.7
2014-Dec-14 04:00N 54°39' W 156°17'1 0.7 1001.7 6.8
2014-Dec-14 03:00N 54°40' W 156°16'1 0.6 1002.5 6.8
2014-Dec-14 01:50N 54°40' W 156°15'2 1.7 1003.0 6.8
2014-Dec-14 00:50N 54°41' W 156°13'0 0.3 1003.3 6.8
2014-Dec-13 23:50N 54°41' W 156°12'1 1.0 1003.3 6.8
2014-Dec-13 22:50N 54°42' W 156°11'17 0.7 1003.8 6.8
2014-Dec-12 23:50N 54°50' W 155°45'2 0.8 996.5 7.1
2014-Dec-12 21:50N 54°50' W 155°42'0 0.3 996.5 7.1
2014-Dec-12 20:50N 54°51' W 155°42'1 1.1 996.6 7.1
2014-Dec-12 20:00N 54°50' W 155°40'2 1.1 996.4 7.1
2014-Dec-12 18:00N 54°51' W 155°37'1 0.8 995.4 7.1
2014-Dec-12 17:00N 54°51' W 155°36'4 1.0 995.0 7.1
2014-Dec-12 13:00N 54°54' W 155°30'5 0.8 994.7 7.1
2014-Dec-12 07:00N 54°54' W 155°22'1 0.7 994.0 7.2
2014-Dec-12 05:00N 54°55' W 155°19'   993.4 7.2

Dump ship's entire track history